createdAt,value
2023-01-23T00:00:54.231Z,32.70
2023-01-23T00:03:21.957Z,32.66
2023-01-23T00:05:58.560Z,32.59
2023-01-23T00:08:26.248Z,32.78
2023-01-23T00:10:53.974Z,32.69
2023-01-23T00:13:21.957Z,32.83
2023-01-23T00:15:49.679Z,32.62
2023-01-23T00:18:17.521Z,32.77
2023-01-23T00:20:45.376Z,32.81
2023-01-23T00:23:14.529Z,32.90
2023-01-23T00:25:42.197Z,32.85
2023-01-23T00:28:09.847Z,32.78
2023-01-23T00:30:37.565Z,32.74
2023-01-23T00:33:05.338Z,32.87
2023-01-23T00:35:33.086Z,32.83
2023-01-23T00:38:00.791Z,32.90
2023-01-23T00:40:29.822Z,32.76
2023-01-23T00:42:57.534Z,32.88
2023-01-23T00:45:25.287Z,32.77
2023-01-23T00:47:53.022Z,32.86
2023-01-23T00:50:20.873Z,32.86
2023-01-23T00:52:48.704Z,32.90
2023-01-23T00:55:16.421Z,32.94
2023-01-23T00:57:45.531Z,32.78
2023-01-23T01:00:13.477Z,32.75
2023-01-23T01:02:41.202Z,33.03
2023-01-23T01:05:09.213Z,32.83
2023-01-23T01:07:37.000Z,32.83
2023-01-23T01:10:04.852Z,32.93
2023-01-23T01:12:32.561Z,32.85
2023-01-23T01:15:02.326Z,32.84
2023-01-23T01:17:30.095Z,32.89
2023-01-23T01:19:57.732Z,32.98
2023-01-23T01:22:25.366Z,32.84
2023-01-23T01:24:53.096Z,32.94
2023-01-23T01:27:20.783Z,33.01
2023-01-23T01:29:48.617Z,32.99
2023-01-23T01:32:17.775Z,32.99
2023-01-23T01:34:45.480Z,32.94
2023-01-23T01:37:13.093Z,33.05
2023-01-23T01:39:40.745Z,32.94
2023-01-23T01:42:08.520Z,33.08
2023-01-23T01:44:51.758Z,32.95
2023-01-23T01:47:20.884Z,33.03
2023-01-23T01:49:48.515Z,33.05
2023-01-23T01:52:16.239Z,32.94
2023-01-23T01:54:44.234Z,33.04
2023-01-23T01:57:12.979Z,33.01
2023-01-23T01:59:42.010Z,32.81
2023-01-23T02:02:10.620Z,32.81
2023-01-23T02:04:44.020Z,33.03
2023-01-23T02:07:12.677Z,32.91
2023-01-23T02:09:41.276Z,33.01
2023-01-23T02:12:08.960Z,32.74
2023-01-23T02:14:36.675Z,33.02
2023-01-23T02:17:04.393Z,33.03
2023-01-23T02:19:38.607Z,32.88
2023-01-23T02:22:09.178Z,32.88
2023-01-23T02:24:38.475Z,33.03
2023-01-23T02:27:07.560Z,33.08
2023-01-23T02:29:41.534Z,33.15
2023-01-23T02:32:09.253Z,33.00
2023-01-23T02:34:37.463Z,33.16
2023-01-23T02:37:05.199Z,33.17
2023-01-23T02:39:33.290Z,33.15
2023-01-23T02:42:00.993Z,33.08
2023-01-23T02:44:31.736Z,32.98
2023-01-23T02:47:00.061Z,33.01
2023-01-23T02:49:27.701Z,33.17
2023-01-23T02:51:55.543Z,33.15
2023-01-23T02:54:23.758Z,33.22
2023-01-23T02:56:51.428Z,33.20
2023-01-23T02:59:36.203Z,33.17
2023-01-23T03:02:06.272Z,33.29
2023-01-23T03:04:33.974Z,33.22
2023-01-23T03:07:01.677Z,33.23
2023-01-23T03:09:29.471Z,33.27
2023-01-23T03:11:57.105Z,33.06
2023-01-23T03:14:25.018Z,33.12
2023-01-23T03:16:53.993Z,33.22
2023-01-23T03:19:23.586Z,33.16
2023-01-23T03:21:51.360Z,33.07
2023-01-23T03:24:19.054Z,33.12
2023-01-23T03:26:47.124Z,33.21
2023-01-23T03:29:33.146Z,33.34
2023-01-23T03:32:00.827Z,33.37
2023-01-23T03:34:29.870Z,33.33
2023-01-23T03:36:57.609Z,33.45
2023-01-23T03:39:42.699Z,33.32
2023-01-23T03:42:10.337Z,33.41
2023-01-23T03:44:37.981Z,33.34
2023-01-23T03:47:05.723Z,33.46
2023-01-23T03:49:34.841Z,33.57
2023-01-23T03:52:02.587Z,33.63
2023-01-23T03:54:30.458Z,33.24
2023-01-23T03:56:58.149Z,33.63
2023-01-23T03:59:25.825Z,33.54
2023-01-23T04:01:53.437Z,33.75
2023-01-23T04:04:21.098Z,33.76
2023-01-23T04:06:50.208Z,33.79
2023-01-23T04:09:17.861Z,33.89
2023-01-23T04:11:45.540Z,33.67
2023-01-23T04:14:13.334Z,33.98
2023-01-23T04:16:41.124Z,33.85
2023-01-23T04:19:08.804Z,33.76
2023-01-23T04:21:36.497Z,33.69
2023-01-23T04:24:05.695Z,33.90
2023-01-23T04:26:35.167Z,33.84
2023-01-23T04:29:02.962Z,33.95
2023-01-23T04:31:30.672Z,33.92
2023-01-23T04:33:58.400Z,33.81
2023-01-23T04:36:26.107Z,34.08
2023-01-23T04:38:53.804Z,34.01
2023-01-23T04:41:23.062Z,34.00
2023-01-23T04:43:50.721Z,34.02
2023-01-23T04:46:18.415Z,34.04
2023-01-23T04:48:48.660Z,34.00
2023-01-23T04:51:16.582Z,34.08
2023-01-23T04:53:44.639Z,34.05
2023-01-23T04:56:12.298Z,33.94
2023-01-23T04:58:41.370Z,34.16
2023-01-23T05:01:09.067Z,34.08
2023-01-23T05:03:37.441Z,33.97
2023-01-23T05:06:05.237Z,34.28
2023-01-23T05:08:33.039Z,34.16
2023-01-23T05:11:00.794Z,34.07
2023-01-23T05:13:29.062Z,34.09
2023-01-23T05:15:58.306Z,34.16
2023-01-23T05:18:26.097Z,34.04
2023-01-23T05:20:53.898Z,34.17
2023-01-23T05:23:21.549Z,33.98
2023-01-23T05:25:49.291Z,34.15
2023-01-23T05:28:16.915Z,34.04
2023-01-23T05:30:44.829Z,34.06
2023-01-23T05:33:13.992Z,34.06
2023-01-23T05:35:41.673Z,33.98
2023-01-23T05:38:09.261Z,34.15
2023-01-23T05:40:36.884Z,34.12
2023-01-23T05:43:04.668Z,34.25
2023-01-23T05:45:32.380Z,34.15
2023-01-23T05:48:00.119Z,34.11
2023-01-23T05:50:29.158Z,34.10
2023-01-23T05:52:56.853Z,34.12
2023-01-23T05:55:24.796Z,34.07
2023-01-23T05:57:52.466Z,34.03
2023-01-23T06:00:20.747Z,34.19
2023-01-23T06:02:48.714Z,34.22
2023-01-23T06:05:16.558Z,34.14
2023-01-23T06:07:45.632Z,34.15
2023-01-23T06:10:13.320Z,34.08
2023-01-23T06:12:41.096Z,34.11
2023-01-23T06:15:09.397Z,34.10
2023-01-23T06:17:37.134Z,34.06
2023-01-23T06:20:05.017Z,34.00
2023-01-23T06:22:32.696Z,33.95
2023-01-23T06:25:01.729Z,33.92
2023-01-23T06:27:29.335Z,34.08
2023-01-23T06:29:57.051Z,34.06
2023-01-23T06:32:24.750Z,33.98
2023-01-23T06:34:52.426Z,33.92
2023-01-23T06:37:20.110Z,33.94
2023-01-23T06:39:47.809Z,33.95
2023-01-23T06:42:16.919Z,33.85
2023-01-23T06:44:44.960Z,33.86
2023-01-23T06:47:12.634Z,33.97
2023-01-23T06:49:40.582Z,33.99
2023-01-23T06:52:08.208Z,33.81
2023-01-23T06:54:36.012Z,33.81
2023-01-23T06:57:04.512Z,33.82
2023-01-23T06:59:33.677Z,33.91
2023-01-23T07:02:01.319Z,33.73
2023-01-23T07:04:29.014Z,33.91
2023-01-23T07:06:56.760Z,33.97
2023-01-23T07:09:24.493Z,33.77
2023-01-23T07:11:52.136Z,33.81
2023-01-23T07:14:19.748Z,33.80
2023-01-23T07:16:48.815Z,33.94
2023-01-23T07:19:16.485Z,33.80
2023-01-23T07:21:44.106Z,33.69
2023-01-23T07:24:11.874Z,33.93
2023-01-23T07:26:39.584Z,33.70
2023-01-23T07:29:07.350Z,33.70
2023-01-23T07:31:35.053Z,33.63
2023-01-23T07:34:04.145Z,33.48
2023-01-23T07:36:31.856Z,33.77
2023-01-23T07:38:59.911Z,33.68
2023-01-23T07:41:27.533Z,33.70
2023-01-23T07:43:55.213Z,33.65
2023-01-23T07:46:23.798Z,33.70
2023-01-23T07:48:51.671Z,33.65
2023-01-23T07:51:20.918Z,33.57
2023-01-23T07:53:48.657Z,33.52
2023-01-23T07:56:16.408Z,33.54
2023-01-23T07:58:44.044Z,33.53
2023-01-23T08:01:12.076Z,33.46
2023-01-23T08:03:39.946Z,33.48
2023-01-23T08:06:08.118Z,33.53
2023-01-23T08:08:37.167Z,33.38
2023-01-23T08:11:05.699Z,33.48
2023-01-23T08:13:33.360Z,33.30
2023-01-23T08:16:01.138Z,33.31
2023-01-23T08:18:30.116Z,33.29
2023-01-23T08:20:57.897Z,33.21
2023-01-23T08:23:25.849Z,33.33
2023-01-23T08:25:55.480Z,33.22
2023-01-23T08:28:23.259Z,33.21
2023-01-23T08:30:51.016Z,33.21
2023-01-23T08:33:18.900Z,33.14
2023-01-23T08:35:50.068Z,33.14
2023-01-23T08:38:18.933Z,33.21
2023-01-23T08:40:46.675Z,33.12
2023-01-23T08:43:16.404Z,33.25
2023-01-23T08:45:44.163Z,32.90
2023-01-23T08:48:12.129Z,33.09
2023-01-23T08:50:39.819Z,32.91
2023-01-23T08:53:07.533Z,33.12
2023-01-23T08:55:36.415Z,33.04
2023-01-23T08:58:04.177Z,33.09
2023-01-23T09:00:33.923Z,33.08
2023-01-23T09:03:01.782Z,33.13
2023-01-23T09:05:31.022Z,33.01
2023-01-23T09:08:01.407Z,33.03
2023-01-23T09:10:29.946Z,33.01
2023-01-23T09:12:58.750Z,33.06
2023-01-23T09:15:27.364Z,33.09
2023-01-23T09:17:56.450Z,33.00
2023-01-23T09:20:26.179Z,33.03
2023-01-23T09:22:54.001Z,33.00
2023-01-23T09:25:21.742Z,33.07
2023-01-23T09:27:49.754Z,33.10
2023-01-23T09:30:17.924Z,32.97
2023-01-23T09:32:46.393Z,33.13
2023-01-23T09:35:15.497Z,33.27
2023-01-23T09:38:01.716Z,33.21
2023-01-23T09:40:29.773Z,33.01
2023-01-23T09:42:58.322Z,33.02
2023-01-23T09:45:27.183Z,33.09
2023-01-23T09:47:55.314Z,32.99
2023-01-23T09:50:25.121Z,32.88
2023-01-23T09:52:55.020Z,33.02
2023-01-23T09:55:24.697Z,33.09
2023-01-23T09:57:54.852Z,33.00
2023-01-23T10:00:24.360Z,33.01
2023-01-23T10:02:53.444Z,33.03
2023-01-23T10:05:22.600Z,32.88
2023-01-23T10:07:54.435Z,33.09
2023-01-23T10:10:52.851Z,33.05
2023-01-23T10:13:20.915Z,32.95
2023-01-23T10:16:02.351Z,33.02
2023-01-23T10:18:31.270Z,32.94
2023-01-23T10:21:03.182Z,32.92
2023-01-23T10:23:46.917Z,32.94
2023-01-23T10:26:17.168Z,33.07
2023-01-23T10:28:44.903Z,32.90
2023-01-23T10:31:15.021Z,33.01
2023-01-23T10:33:43.869Z,32.95
2023-01-23T10:36:23.450Z,32.95
2023-01-23T10:38:56.357Z,32.90
2023-01-23T10:41:24.850Z,32.95
2023-01-23T10:43:53.592Z,32.95
2023-01-23T10:46:23.290Z,32.99
2023-01-23T10:48:51.603Z,32.87
2023-01-23T10:51:25.892Z,33.01
2023-01-23T10:54:30.781Z,32.91
2023-01-23T10:57:02.081Z,32.77
2023-01-23T10:59:31.028Z,32.83
2023-01-23T11:01:59.921Z,32.91
2023-01-23T11:04:28.710Z,32.88
2023-01-23T11:07:03.282Z,32.85
2023-01-23T11:09:32.412Z,32.77
2023-01-23T11:12:05.463Z,32.96
2023-01-23T11:14:33.863Z,32.83
2023-01-23T11:17:02.360Z,32.81
2023-01-23T11:19:31.953Z,32.84
2023-01-23T11:22:00.177Z,32.81
2023-01-23T11:24:41.134Z,33.03
2023-01-23T11:27:18.533Z,32.72
2023-01-23T11:29:52.381Z,32.92
2023-01-23T11:32:20.242Z,33.01
2023-01-23T11:34:49.582Z,32.83
2023-01-23T11:37:18.424Z,32.79
2023-01-23T11:39:48.431Z,32.88
2023-01-23T11:42:20.393Z,32.85
2023-01-23T11:44:48.839Z,32.88
2023-01-23T11:47:34.205Z,32.80
2023-01-23T11:50:12.108Z,33.08
2023-01-23T11:52:43.189Z,32.84
2023-01-23T11:55:34.326Z,32.82
2023-01-23T11:58:06.163Z,32.77
2023-01-23T12:00:35.107Z,32.79
2023-01-23T12:03:18.064Z,32.78
2023-01-23T12:08:56.115Z,32.80
2023-01-23T12:11:26.210Z,32.89
2023-01-23T12:14:04.215Z,32.88
2023-01-23T12:16:41.856Z,32.70
2023-01-23T12:19:12.847Z,32.71
2023-01-23T12:21:42.597Z,32.70
2023-01-23T12:24:15.595Z,32.67
2023-01-23T12:26:46.974Z,32.83
2023-01-23T12:29:30.165Z,32.59
2023-01-23T12:32:02.264Z,32.68
2023-01-23T12:34:37.418Z,32.68
2023-01-23T12:37:22.238Z,33.00
2023-01-23T12:39:58.963Z,32.75
2023-01-23T12:42:28.347Z,32.77
2023-01-23T12:44:59.116Z,32.67
2023-01-23T12:47:28.838Z,32.77
2023-01-23T12:49:57.224Z,32.72
2023-01-23T12:52:26.772Z,32.82
2023-01-23T12:54:56.598Z,32.80
2023-01-23T12:57:52.256Z,32.64
2023-01-23T13:00:31.799Z,32.65
2023-01-23T13:03:01.256Z,32.63
2023-01-23T13:05:31.114Z,32.48
2023-01-23T13:07:59.662Z,32.63
2023-01-23T13:10:54.697Z,32.68
2023-01-23T13:13:22.375Z,32.52
2023-01-23T13:16:05.334Z,32.62
2023-01-23T13:18:53.137Z,32.67
2023-01-23T13:21:38.758Z,32.58
2023-01-23T13:24:39.742Z,32.54
2023-01-23T13:27:22.914Z,32.51
2023-01-23T13:29:50.912Z,32.51
2023-01-23T13:32:23.979Z,32.48
2023-01-23T13:34:51.840Z,32.47
2023-01-23T13:37:48.177Z,32.48
2023-01-23T13:40:16.461Z,32.51
2023-01-23T13:42:45.306Z,32.59
2023-01-23T13:45:32.582Z,32.69
2023-01-23T14:25:41.472Z,32.40
2023-01-23T14:28:09.184Z,32.40
2023-01-23T14:30:37.561Z,32.50
2023-01-23T14:33:11.569Z,32.32
2023-01-23T14:35:40.960Z,32.49
2023-01-23T14:38:10.139Z,32.48
2023-01-23T14:40:49.872Z,32.37
2023-01-23T14:43:22.123Z,32.36
2023-01-23T14:45:51.376Z,32.23
2023-01-23T14:48:19.052Z,32.52
2023-01-23T14:50:46.759Z,32.51
2023-01-23T14:53:16.944Z,32.60
2023-01-23T14:55:46.749Z,32.49
2023-01-23T14:58:17.473Z,32.46
2023-01-23T15:00:45.142Z,32.41
2023-01-23T15:03:13.064Z,32.44
2023-01-23T15:05:42.450Z,32.49
2023-01-23T15:08:20.394Z,32.97
2023-01-23T15:10:49.079Z,32.53
2023-01-23T15:13:21.758Z,32.50
2023-01-23T15:15:51.617Z,32.49
2023-01-23T15:18:21.099Z,32.41
2023-01-23T15:20:54.273Z,32.32
2023-01-23T15:23:28.819Z,32.55
2023-01-23T15:26:12.540Z,32.51
2023-01-23T15:28:41.317Z,32.31
2023-01-23T15:31:20.824Z,32.50
2023-01-23T15:33:49.492Z,32.40
2023-01-23T15:36:22.667Z,32.44
2023-01-23T15:38:52.508Z,32.60
2023-01-23T15:41:33.890Z,32.42
2023-01-23T15:44:05.287Z,32.53
2023-01-23T15:46:33.022Z,32.33
2023-01-23T15:49:00.819Z,32.36
2023-01-23T15:51:29.285Z,32.38
2023-01-23T15:53:58.463Z,32.55
2023-01-23T15:56:27.192Z,32.40
2023-01-23T15:58:55.805Z,32.39
2023-01-23T16:01:23.660Z,32.47
2023-01-23T16:03:51.417Z,32.45
2023-01-23T16:06:19.927Z,32.36
2023-01-23T16:08:54.982Z,32.35
2023-01-23T16:11:29.916Z,32.32
2023-01-23T16:13:57.584Z,32.44
2023-01-23T16:16:25.308Z,32.38
2023-01-23T16:18:53.735Z,32.48
2023-01-23T16:21:22.080Z,32.28
2023-01-23T16:23:49.843Z,32.35
2023-01-23T16:26:18.782Z,32.28
2023-01-23T16:28:47.932Z,32.31
2023-01-23T16:31:16.672Z,32.30
2023-01-23T16:33:44.446Z,32.44
2023-01-23T16:36:13.566Z,32.25
2023-01-23T16:38:41.246Z,32.37
2023-01-23T16:41:10.319Z,32.32
2023-01-23T16:43:38.823Z,32.30
2023-01-23T16:46:09.475Z,32.38
2023-01-23T16:48:37.910Z,32.35
2023-01-23T16:51:08.180Z,32.38
2023-01-23T16:53:37.487Z,32.33
2023-01-23T16:56:05.528Z,32.46
2023-01-23T16:58:34.581Z,32.54
2023-01-23T17:01:03.191Z,32.40
2023-01-23T17:03:35.492Z,32.44
2023-01-23T17:06:03.211Z,32.34
2023-01-23T17:08:31.156Z,32.39
2023-01-23T17:11:00.408Z,32.45
2023-01-23T17:13:28.163Z,32.56
2023-01-23T17:15:56.960Z,32.44
2023-01-23T17:18:24.922Z,32.29
2023-01-23T17:20:55.160Z,32.54
2023-01-23T17:23:23.690Z,32.36
2023-01-23T17:26:00.402Z,32.41
2023-01-23T17:28:29.887Z,32.28
2023-01-23T17:30:58.092Z,32.24
2023-01-23T17:33:26.141Z,32.33
2023-01-23T17:35:57.498Z,32.29
2023-01-23T17:38:25.371Z,32.33
2023-01-23T17:40:54.138Z,32.41
2023-01-23T17:43:22.698Z,32.52
2023-01-23T17:45:51.466Z,32.37
2023-01-23T17:48:20.244Z,32.34
2023-01-23T17:50:47.965Z,32.35
2023-01-23T17:53:18.070Z,32.42
2023-01-23T17:55:51.345Z,32.23
2023-01-23T17:58:20.035Z,32.42
2023-01-23T18:00:51.570Z,32.49
2023-01-23T18:03:21.922Z,32.40
2023-01-23T18:05:49.664Z,32.45
2023-01-23T18:08:19.801Z,32.37
2023-01-23T18:10:48.782Z,32.52
2023-01-23T18:13:18.680Z,32.36
2023-01-23T18:15:52.539Z,32.38
2023-01-23T18:18:22.542Z,32.24
2023-01-23T18:20:55.483Z,32.24
2023-01-23T18:23:25.032Z,32.14
2023-01-23T18:25:54.081Z,32.17
2023-01-23T18:28:23.572Z,32.26
2023-01-23T18:30:53.620Z,32.23
2023-01-23T18:33:31.710Z,32.19
2023-01-23T18:36:13.683Z,31.96
2023-01-23T18:38:46.644Z,32.09
2023-01-23T18:41:17.037Z,32.08
2023-01-23T18:43:47.605Z,32.06
2023-01-23T18:46:15.800Z,32.04
2023-01-23T18:48:43.781Z,32.08
2023-01-23T18:51:16.313Z,32.09
2023-01-23T18:53:50.407Z,32.10
2023-01-23T18:56:23.186Z,32.15
2023-01-23T18:59:06.411Z,32.17
2023-01-23T19:01:41.656Z,32.12
2023-01-23T19:04:09.976Z,32.09
2023-01-23T19:06:38.316Z,32.02
2023-01-23T19:09:08.918Z,32.08
2023-01-23T19:11:37.750Z,32.08
2023-01-23T19:14:09.759Z,32.13
2023-01-23T19:16:38.249Z,31.99
2023-01-23T19:19:15.434Z,31.99
2023-01-23T19:21:45.673Z,31.99
2023-01-23T19:24:14.903Z,31.96
2023-01-23T19:26:43.128Z,31.98
2023-01-23T19:29:21.477Z,32.16
2023-01-23T19:32:06.543Z,31.94
2023-01-23T19:34:35.095Z,31.85
2023-01-23T19:37:09.810Z,31.88
2023-01-23T19:39:38.889Z,32.04
2023-01-23T19:42:06.727Z,31.99
2023-01-23T19:44:35.715Z,31.99
2023-01-23T19:47:06.778Z,31.91
2023-01-23T19:49:34.467Z,31.79
2023-01-23T19:52:03.656Z,31.74
2023-01-23T19:54:31.319Z,31.93
2023-01-23T19:57:01.392Z,31.72
2023-01-23T19:59:29.070Z,31.84
2023-01-23T20:01:56.809Z,31.82
2023-01-23T20:04:25.511Z,31.81
2023-01-23T20:06:53.312Z,31.82
2023-01-23T20:09:22.049Z,31.87
2023-01-23T20:11:49.785Z,31.66
2023-01-23T20:14:18.846Z,31.90
2023-01-23T20:16:47.850Z,31.85
2023-01-23T20:19:15.733Z,31.84
2023-01-23T20:21:43.404Z,31.91
2023-01-23T20:24:12.738Z,31.85
2023-01-23T20:26:40.875Z,31.83
2023-01-23T20:29:09.547Z,31.94
2023-01-23T20:31:38.904Z,31.78
2023-01-23T20:34:08.173Z,31.60
2023-01-23T20:36:35.799Z,31.67
2023-01-23T20:39:03.688Z,31.62
2023-01-23T20:41:32.285Z,31.60
2023-01-23T20:44:02.014Z,31.54
2023-01-23T20:46:30.876Z,31.65
2023-01-23T20:49:01.633Z,31.70
2023-01-23T20:51:31.142Z,31.68
2023-01-23T20:53:57.841Z,31.67
2023-01-23T20:56:27.775Z,31.65
2023-01-23T20:59:13.795Z,31.44
2023-01-23T21:01:59.004Z,31.58
2023-01-23T21:04:30.420Z,31.59
2023-01-23T21:06:58.064Z,31.52
2023-01-23T21:09:26.791Z,31.43
2023-01-23T21:11:54.610Z,31.38
2023-01-23T21:14:22.374Z,31.47
2023-01-23T21:16:52.862Z,31.43
2023-01-23T21:19:23.211Z,31.42
2023-01-23T21:21:54.820Z,31.40
2023-01-23T21:24:22.502Z,31.20
2023-01-23T21:26:52.467Z,31.48
2023-01-23T21:29:21.036Z,31.40
2023-01-23T21:31:49.263Z,31.44
2023-01-23T21:34:17.091Z,31.21
2023-01-23T21:36:45.816Z,31.26
2023-01-23T21:39:15.246Z,31.35
2023-01-23T21:41:42.917Z,31.29
2023-01-23T21:44:11.482Z,31.37
2023-01-23T21:46:39.175Z,31.27
2023-01-23T21:49:07.121Z,31.25
2023-01-23T21:51:35.680Z,31.29
2023-01-23T21:54:03.336Z,31.39
2023-01-23T21:56:33.418Z,31.31
2023-01-23T21:59:01.395Z,31.34
2023-01-23T22:01:39.795Z,31.11
2023-01-23T22:04:07.827Z,31.27
2023-01-23T22:06:35.674Z,31.27
2023-01-23T22:09:04.214Z,31.21
2023-01-23T22:11:33.255Z,31.10
2023-01-23T22:14:01.005Z,31.18
2023-01-23T22:16:46.827Z,31.28
2023-01-23T22:19:15.561Z,31.28
2023-01-23T22:21:45.027Z,31.24
2023-01-23T22:24:12.749Z,31.34
2023-01-23T22:26:41.923Z,31.39
2023-01-23T22:29:10.445Z,31.15
2023-01-23T22:31:38.304Z,31.22
2023-01-23T22:34:06.089Z,31.23
2023-01-23T22:36:34.774Z,31.29
2023-01-23T22:39:02.459Z,31.24
2023-01-23T22:41:30.244Z,31.29
2023-01-23T22:44:00.986Z,31.35
2023-01-23T22:46:29.659Z,31.27
2023-01-23T22:48:57.442Z,31.27
2023-01-23T22:51:26.268Z,31.38
2023-01-23T22:53:54.133Z,31.28
2023-01-23T22:56:21.813Z,31.11
2023-01-23T22:58:50.433Z,31.26
2023-01-23T23:01:19.560Z,31.14
2023-01-23T23:03:47.339Z,31.27
2023-01-23T23:06:16.203Z,31.21
2023-01-23T23:08:45.648Z,31.26
2023-01-23T23:11:17.456Z,31.10
2023-01-23T23:13:45.273Z,31.17
2023-01-23T23:16:13.803Z,31.24
2023-01-23T23:18:43.560Z,31.09
2023-01-23T23:21:11.915Z,31.31
2023-01-23T23:23:40.032Z,30.98
2023-01-23T23:26:08.205Z,31.10
2023-01-23T23:28:35.928Z,31.08
2023-01-23T23:31:04.229Z,31.07
2023-01-23T23:33:31.988Z,31.13
2023-01-23T23:36:01.283Z,31.23
2023-01-23T23:38:28.915Z,31.21
2023-01-23T23:40:56.830Z,31.02
2023-01-23T23:43:24.548Z,31.28
2023-01-23T23:45:52.607Z,31.08
2023-01-23T23:48:20.324Z,31.09
2023-01-23T23:50:48.086Z,31.09
2023-01-23T23:53:17.186Z,31.03
2023-01-23T23:55:45.266Z,31.21
2023-01-23T23:58:12.946Z,31.06
